Time;durP1;ratioP1;P1;durP2;ratioP2;P2;SDS_P1;SDS_P2;PMS_P1;PMS_P2;Temp;Humidity;BMP_temperature;BMP_pressure;BME280_temperature;BME280_humidity;BME280_pressure;Samples;Min_cycle;Max_cycle;Signal;HPM_P1;HPM_P2
2023/08/02 00:01:01;;;;;;;4.45;1.88;;;;;;;;;;5091713;28;20502;-75
2023/08/02 00:03:28;;;;;;;5.40;1.90;;;;;;;;;;5092173;28;20082;-74
2023/08/02 00:05:55;;;;;;;4.57;2.05;;;;;;;;;;5091039;28;20075;-76
2023/08/02 00:08:21;;;;;;;5.15;2.05;;;;;;;;;;5056549;28;20052;-76
2023/08/02 00:10:47;;;;;;;5.80;1.90;;;;;;;;;;5075883;28;20040;-76
2023/08/02 00:13:13;;;;;;;4.90;1.90;;;;;;;;;;5075974;28;20084;-76
2023/08/02 00:15:40;;;;;;;6.03;1.90;;;;;;;;;;5095968;28;20050;-76
2023/08/02 00:18:06;;;;;;;4.45;2.00;;;;;;;;;;5096857;28;20400;-76
2023/08/02 00:20:32;;;;;;;4.85;2.00;;;;;;;;;;5078211;28;20043;-76
2023/08/02 00:22:58;;;;;;;5.25;2.00;;;;;;;;;;5095609;28;20520;-76
2023/08/02 00:25:24;;;;;;;4.80;2.15;;;;;;;;;;5095464;28;20059;-76
2023/08/02 00:27:51;;;;;;;5.13;2.28;;;;;;;;;;5096494;28;20055;-74
2023/08/02 00:30:17;;;;;;;5.00;2.13;;;;;;;;;;5061148;28;20127;-75
2023/08/02 00:32:46;;;;;;;4.45;2.10;;;;;;;;;;5095038;28;20511;-75
2023/08/02 00:35:12;;;;;;;6.50;2.50;;;;;;;;;;5094273;28;20040;-75
2023/08/02 00:37:38;;;;;;;5.97;2.20;;;;;;;;;;5075989;28;20109;-74
2023/08/02 00:40:05;;;;;;;11.05;2.67;;;;;;;;;;5094540;28;20043;-75
2023/08/02 00:42:31;;;;;;;5.30;2.53;;;;;;;;;;5077739;28;20400;-75
2023/08/02 00:44:57;;;;;;;6.60;2.53;;;;;;;;;;5094927;28;20163;-75
2023/08/02 00:47:25;;;;;;;8.15;2.33;;;;;;;;;;5094879;28;20046;-75
2023/08/02 00:49:51;;;;;;;7.25;2.60;;;;;;;;;;5077146;28;20048;-75
2023/08/02 00:52:17;;;;;;;6.72;2.60;;;;;;;;;;5095529;28;20047;-75
2023/08/02 00:54:43;;;;;;;9.43;3.10;;;;;;;;;;5077180;28;20097;-76
2023/08/02 00:57:10;;;;;;;7.57;3.10;;;;;;;;;;5077396;28;20116;-76
2023/08/02 00:59:42;;;;;;;7.00;3.20;;;;;;;;;;5094872;28;20101;-76
2023/08/02 01:02:08;;;;;;;8.82;3.30;;;;;;;;;;5095423;28;20047;-75
2023/08/02 01:04:35;;;;;;;6.75;3.33;;;;;;;;;;5084877;28;20044;-75
2023/08/02 01:07:16;;;;;;;9.10;3.10;;;;;;;;;;5095041;28;20043;-75
2023/08/02 01:09:50;;;;;;;8.10;3.28;;;;;;;;;;5094641;28;20044;-76
2023/08/02 01:12:18;;;;;;;7.70;3.38;;;;;;;;;;5091806;28;20446;-75
2023/08/02 01:14:49;;;;;;;6.70;3.15;;;;;;;;;;5095041;28;20047;-75
2023/08/02 01:17:15;;;;;;;11.15;3.38;;;;;;;;;;5094700;28;20047;-76
2023/08/02 01:19:42;;;;;;;10.00;3.42;;;;;;;;;;5076521;28;20364;-75
2023/08/02 01:22:08;;;;;;;10.23;3.60;;;;;;;;;;5077318;28;20522;-76
2023/08/02 01:24:35;;;;;;;13.15;4.05;;;;;;;;;;5094402;28;20051;-75
2023/08/02 01:27:05;;;;;;;9.27;3.63;;;;;;;;;;5094613;28;20043;-75
2023/08/02 01:29:32;;;;;;;10.23;3.80;;;;;;;;;;5094518;28;20449;-75
2023/08/02 01:31:58;;;;;;;9.55;3.95;;;;;;;;;;5094778;28;20044;-76
2023/08/02 01:34:25;;;;;;;8.35;3.80;;;;;;;;;;5094657;28;20051;-75
2023/08/02 01:36:51;;;;;;;12.30;4.10;;;;;;;;;;5094241;28;20040;-75
2023/08/02 01:39:17;;;;;;;9.85;4.28;;;;;;;;;;5094368;28;20059;-75
2023/08/02 01:41:43;;;;;;;9.10;4.18;;;;;;;;;;5076644;28;20500;-75
2023/08/02 01:44:09;;;;;;;8.98;4.10;;;;;;;;;;5094273;28;20127;-75
2023/08/02 01:46:35;;;;;;;13.50;4.38;;;;;;;;;;5076200;28;20095;-75
2023/08/02 01:49:02;;;;;;;11.00;4.50;;;;;;;;;;5094665;28;20345;-76
2023/08/02 01:51:28;;;;;;;10.88;4.47;;;;;;;;;;5094214;28;20055;-75
2023/08/02 01:53:54;;;;;;;11.90;4.78;;;;;;;;;;5094295;28;20040;-75
2023/08/02 01:56:20;;;;;;;10.50;4.38;;;;;;;;;;5094057;28;20048;-75
2023/08/02 01:58:46;;;;;;;11.07;4.55;;;;;;;;;;5094587;28;20435;-75
2023/08/02 02:01:12;;;;;;;11.80;4.32;;;;;;;;;;5093505;28;20085;-75
2023/08/02 02:03:38;;;;;;;11.23;4.80;;;;;;;;;;5094202;28;20048;-75
2023/08/02 02:06:04;;;;;;;11.90;4.78;;;;;;;;;;5059114;28;20458;-75
2023/08/02 02:08:30;;;;;;;12.80;4.53;;;;;;;;;;5094296;28;20447;-75
2023/08/02 02:10:56;;;;;;;11.98;4.70;;;;;;;;;;5075481;28;20044;-75
2023/08/02 02:13:24;;;;;;;11.68;4.63;;;;;;;;;;5093993;28;20040;-75
2023/08/02 02:15:50;;;;;;;12.75;4.80;;;;;;;;;;5075285;28;20504;-74
2023/08/02 02:18:16;;;;;;;9.45;4.68;;;;;;;;;;5076156;28;20051;-75
2023/08/02 02:20:43;;;;;;;12.70;4.57;;;;;;;;;;5092988;28;20048;-75
2023/08/02 02:23:09;;;;;;;10.60;4.45;;;;;;;;;;5094009;28;20044;-76
2023/08/02 02:25:35;;;;;;;10.13;4.55;;;;;;;;;;5074957;28;20047;-75
2023/08/02 02:28:01;;;;;;;14.38;4.70;;;;;;;;;;5093955;28;20556;-75
2023/08/02 02:30:27;;;;;;;7.85;4.43;;;;;;;;;;5093370;28;20040;-75
2023/08/02 02:32:53;;;;;;;9.93;4.68;;;;;;;;;;5094016;28;20044;-75
2023/08/02 02:35:19;;;;;;;13.05;4.68;;;;;;;;;;5091162;28;20497;-75
2023/08/02 02:37:46;;;;;;;11.38;4.90;;;;;;;;;;5093178;28;20048;-74
2023/08/02 02:40:12;;;;;;;10.93;4.45;;;;;;;;;;5092663;28;20073;-75
2023/08/02 02:42:40;;;;;;;12.00;4.75;;;;;;;;;;5075167;28;20051;-75
2023/08/02 02:45:06;;;;;;;10.00;4.35;;;;;;;;;;5074120;28;20067;-75
2023/08/02 02:47:32;;;;;;;9.63;4.63;;;;;;;;;;5090923;28;20052;-74
2023/08/02 02:49:58;;;;;;;11.55;5.05;;;;;;;;;;5092747;28;20040;-74
2023/08/02 02:52:24;;;;;;;8.77;4.53;;;;;;;;;;5069551;28;20041;-75
2023/08/02 02:54:51;;;;;;;11.82;4.50;;;;;;;;;;5069711;28;20577;-75
2023/08/02 02:57:17;;;;;;;8.65;4.68;;;;;;;;;;5084137;28;20044;-75
2023/08/02 02:59:43;;;;;;;11.18;5.00;;;;;;;;;;5075220;28;20437;-75
2023/08/02 03:02:09;;;;;;;10.23;4.97;;;;;;;;;;5075327;28;20052;-75
2023/08/02 03:04:36;;;;;;;14.38;5.18;;;;;;;;;;5090858;28;20036;-75
2023/08/02 03:07:02;;;;;;;11.70;5.20;;;;;;;;;;5092815;28;20507;-75
2023/08/02 03:09:28;;;;;;;10.68;4.72;;;;;;;;;;5099059;28;20040;-74
2023/08/02 03:11:54;;;;;;;11.40;5.22;;;;;;;;;;5099160;28;20067;-75
2023/08/02 03:14:21;;;;;;;12.02;5.00;;;;;;;;;;5093877;28;20397;-75
2023/08/02 03:16:47;;;;;;;12.32;5.20;;;;;;;;;;5075487;28;20043;-75
2023/08/02 03:19:13;;;;;;;9.80;5.20;;;;;;;;;;5093460;28;20436;-75
2023/08/02 03:21:40;;;;;;;12.60;5.05;;;;;;;;;;5074582;28;20051;-74
2023/08/02 03:24:06;;;;;;;13.10;4.68;;;;;;;;;;5092759;28;20112;-75
2023/08/02 03:26:32;;;;;;;16.00;5.38;;;;;;;;;;5074098;28;20036;-75
2023/08/02 03:28:58;;;;;;;13.15;5.13;;;;;;;;;;5092574;28;20488;-76
2023/08/02 03:31:24;;;;;;;19.65;5.20;;;;;;;;;;5092688;28;20048;-75
2023/08/02 03:33:51;;;;;;;15.40;5.07;;;;;;;;;;5093115;28;20090;-76
2023/08/02 03:36:17;;;;;;;14.63;5.10;;;;;;;;;;5091736;28;20523;-76
2023/08/02 03:38:43;;;;;;;16.73;5.38;;;;;;;;;;5093298;28;20434;-75
2023/08/02 03:41:09;;;;;;;15.45;4.65;;;;;;;;;;5073901;28;20040;-75
2023/08/02 03:43:35;;;;;;;17.75;5.53;;;;;;;;;;5092552;28;20059;-75
2023/08/02 03:46:02;;;;;;;15.52;5.45;;;;;;;;;;5091655;28;20478;-75
2023/08/02 03:48:28;;;;;;;19.33;5.50;;;;;;;;;;5092843;28;20102;-74
2023/08/02 03:50:58;;;;;;;13.77;5.30;;;;;;;;;;5073408;28;20052;-74
2023/08/02 03:53:26;;;;;;;17.13;5.75;;;;;;;;;;5073481;28;20044;-75
2023/08/02 03:55:52;;;;;;;19.15;5.63;;;;;;;;;;5090820;28;20043;-76
2023/08/02 03:58:18;;;;;;;12.75;5.25;;;;;;;;;;5092696;28;20047;-75
2023/08/02 04:00:44;;;;;;;15.68;5.40;;;;;;;;;;5092045;28;20100;-75
2023/08/02 04:03:10;;;;;;;19.23;5.40;;;;;;;;;;5092151;28;20048;-76
2023/08/02 04:05:36;;;;;;;20.52;6.28;;;;;;;;;;5070551;28;20040;-75
2023/08/02 04:08:03;;;;;;;20.75;6.47;;;;;;;;;;5074590;28;20049;-75
2023/08/02 04:10:29;;;;;;;20.75;5.90;;;;;;;;;;5080768;28;20113;-76
2023/08/02 04:12:55;;;;;;;21.30;6.00;;;;;;;;;;5092172;28;20048;-75
2023/08/02 04:15:21;;;;;;;21.27;6.35;;;;;;;;;;5091858;28;20062;-76
2023/08/02 04:17:49;;;;;;;20.45;6.63;;;;;;;;;;5092559;28;20133;-75
2023/08/02 04:20:15;;;;;;;21.25;6.75;;;;;;;;;;5091868;28;20481;-75
2023/08/02 04:22:41;;;;;;;20.75;6.78;;;;;;;;;;5092381;28;20048;-75
2023/08/02 04:25:07;;;;;;;18.50;6.82;;;;;;;;;;5091960;28;20447;-76
2023/08/02 04:27:33;;;;;;;17.90;6.85;;;;;;;;;;5092307;28;20048;-75
2023/08/02 04:29:59;;;;;;;20.17;6.60;;;;;;;;;;5092349;28;20373;-75
2023/08/02 04:32:26;;;;;;;20.13;7.10;;;;;;;;;;5092346;28;20103;-75
2023/08/02 04:34:52;;;;;;;19.90;6.90;;;;;;;;;;5091213;28;20073;-75
2023/08/02 04:37:18;;;;;;;18.23;7.07;;;;;;;;;;5073716;28;20040;-75
2023/08/02 04:39:44;;;;;;;21.55;7.43;;;;;;;;;;5073737;28;20197;-75
2023/08/02 04:42:11;;;;;;;16.92;6.40;;;;;;;;;;5073505;28;20511;-75
2023/08/02 04:44:37;;;;;;;22.05;7.38;;;;;;;;;;5090809;28;20050;-75
2023/08/02 04:47:03;;;;;;;18.88;7.43;;;;;;;;;;5072072;28;20052;-75
2023/08/02 04:49:29;;;;;;;24.17;7.75;;;;;;;;;;5091799;28;20051;-75
2023/08/02 04:51:55;;;;;;;18.00;6.63;;;;;;;;;;5091538;28;20036;-75
2023/08/02 04:54:21;;;;;;;16.60;7.07;;;;;;;;;;5089873;28;20485;-75
2023/08/02 04:56:47;;;;;;;15.45;7.28;;;;;;;;;;5090413;28;20044;-75
2023/08/02 04:59:13;;;;;;;15.65;7.38;;;;;;;;;;5093031;28;20101;-75
2023/08/02 05:01:40;;;;;;;15.55;6.78;;;;;;;;;;5095210;28;20389;-75
2023/08/02 05:04:08;;;;;;;21.48;7.63;;;;;;;;;;5094922;28;20039;-75
2023/08/02 05:06:34;;;;;;;17.48;7.38;;;;;;;;;;5095232;28;20378;-75
2023/08/02 05:09:04;;;;;;;18.02;7.50;;;;;;;;;;5077184;28;20555;-75
2023/08/02 05:11:31;;;;;;;19.60;7.90;;;;;;;;;;5094724;28;20480;-75
2023/08/02 05:13:58;;;;;;;16.73;7.07;;;;;;;;;;5095070;28;20052;-75
2023/08/02 05:16:25;;;;;;;21.65;8.32;;;;;;;;;;5076632;28;20523;-75
2023/08/02 05:18:51;;;;;;;23.92;7.65;;;;;;;;;;5094873;28;20055;-73
2023/08/02 05:21:18;;;;;;;13.93;7.32;;;;;;;;;;5094758;28;20456;-73
2023/08/02 05:23:45;;;;;;;19.02;7.65;;;;;;;;;;5094042;28;20048;-73
2023/08/02 05:26:12;;;;;;;19.75;7.57;;;;;;;;;;5076603;28;20040;-74
2023/08/02 05:28:39;;;;;;;21.52;7.40;;;;;;;;;;5074853;28;20056;-73
2023/08/02 05:31:09;;;;;;;18.35;7.53;;;;;;;;;;5073219;28;20507;-73
2023/08/02 05:33:35;;;;;;;19.77;7.88;;;;;;;;;;5073418;28;20122;-73
2023/08/02 05:36:02;;;;;;;22.13;7.68;;;;;;;;;;5072917;28;20189;-73
2023/08/02 05:38:30;;;;;;;17.88;7.82;;;;;;;;;;5056878;28;20087;-73
2023/08/02 05:40:56;;;;;;;19.35;7.88;;;;;;;;;;5074291;28;20063;-73
2023/08/02 05:43:22;;;;;;;19.77;8.18;;;;;;;;;;5074813;28;20116;-74
2023/08/02 05:45:52;;;;;;;23.02;8.20;;;;;;;;;;5073864;28;20048;-73
2023/08/02 05:48:19;;;;;;;19.38;7.57;;;;;;;;;;5057070;28;20132;-74
2023/08/02 05:50:45;;;;;;;21.02;7.93;;;;;;;;;;5073975;28;20052;-74
2023/08/02 05:53:11;;;;;;;19.60;7.70;;;;;;;;;;5081201;28;20085;-74
2023/08/02 05:55:37;;;;;;;19.13;7.97;;;;;;;;;;5076102;28;20044;-74
2023/08/02 05:58:03;;;;;;;18.98;7.38;;;;;;;;;;5076480;28;20055;-74
2023/08/02 06:00:30;;;;;;;20.50;8.02;;;;;;;;;;5094391;28;20404;-74
2023/08/02 06:02:56;;;;;;;19.05;8.60;;;;;;;;;;5094743;28;20115;-75
2023/08/02 06:05:22;;;;;;;18.35;7.70;;;;;;;;;;5093136;28;20040;-73
2023/08/02 06:07:48;;;;;;;18.13;7.53;;;;;;;;;;5075773;28;20052;-73
2023/08/02 06:10:14;;;;;;;18.48;7.60;;;;;;;;;;5083287;28;20048;-74
2023/08/02 06:12:40;;;;;;;17.42;8.10;;;;;;;;;;5055810;28;20514;-74
2023/08/02 06:15:07;;;;;;;18.23;7.30;;;;;;;;;;5073629;28;20046;-74
2023/08/02 06:17:33;;;;;;;17.27;7.45;;;;;;;;;;5074167;28;20041;-74
2023/08/02 06:19:59;;;;;;;20.08;8.00;;;;;;;;;;5084914;28;20070;-74
2023/08/02 06:22:26;;;;;;;16.55;7.90;;;;;;;;;;5075221;28;20501;-73
2023/08/02 06:24:52;;;;;;;20.77;8.32;;;;;;;;;;5093493;28;20447;-74
2023/08/02 06:27:18;;;;;;;17.30;7.65;;;;;;;;;;5093308;28;20483;-73
2023/08/02 06:29:44;;;;;;;17.80;7.80;;;;;;;;;;5058966;28;20204;-73
2023/08/02 06:32:10;;;;;;;15.10;6.95;;;;;;;;;;5080015;28;20074;-73
2023/08/02 06:34:36;;;;;;;17.73;7.75;;;;;;;;;;5104206;28;20043;-74
2023/08/02 06:37:02;;;;;;;13.35;7.70;;;;;;;;;;5078417;28;20515;-74
2023/08/02 06:39:28;;;;;;;16.33;8.13;;;;;;;;;;5093794;28;20087;-75
2023/08/02 06:41:54;;;;;;;13.40;7.00;;;;;;;;;;5093601;28;20036;-74
2023/08/02 06:44:21;;;;;;;12.98;7.82;;;;;;;;;;5071324;28;20043;-74
2023/08/02 06:46:48;;;;;;;14.27;8.30;;;;;;;;;;5091910;28;20080;-73
2023/08/02 06:49:14;;;;;;;17.77;8.40;;;;;;;;;;5092948;28;20058;-73
2023/08/02 06:51:40;;;;;;;13.60;7.78;;;;;;;;;;5081995;28;20040;-74
2023/08/02 06:54:06;;;;;;;15.98;8.32;;;;;;;;;;5083040;28;20044;-74
2023/08/02 06:56:32;;;;;;;18.15;8.52;;;;;;;;;;5092969;28;20040;-74
2023/08/02 06:58:58;;;;;;;16.27;9.15;;;;;;;;;;5091488;28;20392;-74
2023/08/02 07:01:25;;;;;;;17.92;9.18;;;;;;;;;;5091750;28;20072;-74
2023/08/02 07:03:52;;;;;;;15.48;9.10;;;;;;;;;;5091742;28;20059;-74
2023/08/02 07:06:19;;;;;;;16.85;8.70;;;;;;;;;;5092348;28;20051;-74
2023/08/02 07:08:45;;;;;;;16.20;8.70;;;;;;;;;;5083050;28;20374;-74
2023/08/02 07:11:11;;;;;;;14.15;8.95;;;;;;;;;;5093023;28;20040;-74
2023/08/02 07:13:38;;;;;;;16.25;9.25;;;;;;;;;;5074930;28;20442;-74
2023/08/02 07:16:05;;;;;;;16.02;8.20;;;;;;;;;;5092987;28;20040;-74
2023/08/02 07:18:32;;;;;;;13.77;8.07;;;;;;;;;;5093489;28;20127;-76
2023/08/02 07:21:05;;;;;;;12.57;8.15;;;;;;;;;;5090188;28;20040;-77
2023/08/02 07:23:31;;;;;;;15.82;8.32;;;;;;;;;;5092322;28;20489;-77
2023/08/02 07:25:57;;;;;;;15.80;7.75;;;;;;;;;;5092376;28;20050;-77
2023/08/02 07:28:23;;;;;;;13.57;7.28;;;;;;;;;;5092436;28;20039;-76
2023/08/02 07:30:50;;;;;;;14.30;7.03;;;;;;;;;;5087110;28;20044;-76
2023/08/02 07:33:16;;;;;;;14.52;6.97;;;;;;;;;;5072859;28;20053;-77
2023/08/02 07:35:42;;;;;;;19.75;6.78;;;;;;;;;;5067088;28;20047;-76
2023/08/02 07:38:08;;;;;;;17.35;6.97;;;;;;;;;;5091561;28;20055;-77
2023/08/02 07:40:34;;;;;;;15.27;6.10;;;;;;;;;;5073780;28;20056;-76
2023/08/02 07:43:00;;;;;;;15.05;6.40;;;;;;;;;;5073641;28;20495;-77
2023/08/02 07:45:27;;;;;;;14.80;6.03;;;;;;;;;;5079789;28;20607;-76
2023/08/02 07:47:53;;;;;;;12.13;6.00;;;;;;;;;;5073168;28;20055;-76
2023/08/02 07:50:19;;;;;;;12.65;5.80;;;;;;;;;;5092012;28;20150;-77
2023/08/02 07:52:45;;;;;;;12.90;5.90;;;;;;;;;;5091992;28;20079;-77
2023/08/02 07:55:11;;;;;;;13.68;5.78;;;;;;;;;;5091111;28;20052;-78
2023/08/02 07:57:37;;;;;;;10.63;5.05;;;;;;;;;;5091898;28;20054;-77
2023/08/02 08:00:04;;;;;;;12.98;5.05;;;;;;;;;;5092071;28;20058;-78
2023/08/02 08:02:30;;;;;;;11.80;5.40;;;;;;;;;;5091541;28;20040;-78
2023/08/02 08:04:56;;;;;;;11.32;5.07;;;;;;;;;;5090750;28;20435;-78
2023/08/02 08:07:22;;;;;;;8.70;4.82;;;;;;;;;;5073449;28;20040;-77
2023/08/02 08:09:51;;;;;;;11.30;5.15;;;;;;;;;;5065567;28;20036;-78
2023/08/02 08:12:17;;;;;;;10.95;5.07;;;;;;;;;;5055867;28;20413;-77
2023/08/02 08:14:43;;;;;;;11.23;4.85;;;;;;;;;;5085913;28;20064;-75
2023/08/02 08:17:09;;;;;;;10.85;4.80;;;;;;;;;;5077116;28;20506;-76
2023/08/02 08:19:35;;;;;;;11.88;5.32;;;;;;;;;;5074101;28;20393;-76
2023/08/02 08:22:01;;;;;;;9.75;5.03;;;;;;;;;;5091926;28;20477;-77
2023/08/02 08:24:27;;;;;;;13.13;5.20;;;;;;;;;;5090047;28;20462;-76
2023/08/02 08:26:57;;;;;;;13.85;4.78;;;;;;;;;;5086926;28;20036;-76
2023/08/02 08:29:24;;;;;;;10.90;5.18;;;;;;;;;;5072192;28;20538;-76
2023/08/02 08:31:50;;;;;;;10.80;4.90;;;;;;;;;;5088119;28;20123;-77
2023/08/02 08:34:16;;;;;;;13.55;6.07;;;;;;;;;;5075047;28;20059;-77
2023/08/02 08:36:42;;;;;;;13.65;5.88;;;;;;;;;;5096317;28;20100;-76
2023/08/02 08:39:08;;;;;;;12.40;5.80;;;;;;;;;;5096989;28;20036;-84
2023/08/02 08:41:34;;;;;;;13.57;5.35;;;;;;;;;;5079040;28;20480;-82
2023/08/02 08:44:01;;;;;;;9.77;5.30;;;;;;;;;;5096090;28;20568;-80
2023/08/02 08:46:28;;;;;;;14.05;5.43;;;;;;;;;;5094980;28;20105;-81
2023/08/02 08:48:54;;;;;;;14.45;5.80;;;;;;;;;;5096639;28;20071;-82
2023/08/02 08:51:22;;;;;;;15.30;6.05;;;;;;;;;;5091709;28;20047;-79
2023/08/02 08:53:49;;;;;;;11.35;5.47;;;;;;;;;;5091608;28;20048;-79
2023/08/02 08:56:15;;;;;;;16.70;6.13;;;;;;;;;;5093558;28;20040;-79
2023/08/02 08:58:42;;;;;;;12.63;6.53;;;;;;;;;;5094573;28;20424;-79
2023/08/02 09:01:08;;;;;;;11.70;5.93;;;;;;;;;;5095286;28;20036;-79
2023/08/02 09:03:34;;;;;;;14.55;7.03;;;;;;;;;;5093753;28;20036;-78
2023/08/02 09:06:01;;;;;;;13.60;6.78;;;;;;;;;;5075138;28;20782;-79
2023/08/02 09:08:27;;;;;;;13.52;6.72;;;;;;;;;;5070094;28;20056;-82
2023/08/02 09:10:54;;;;;;;14.18;6.80;;;;;;;;;;5093752;28;20044;-79
2023/08/02 09:13:23;;;;;;;17.45;7.13;;;;;;;;;;5094288;28;20411;-81
2023/08/02 09:16:10;;;;;;;18.23;7.28;;;;;;;;;;5076323;28;20044;-82
2023/08/02 09:18:36;;;;;;;14.32;6.28;;;;;;;;;;5074246;28;20050;-83
2023/08/02 09:21:03;;;;;;;15.80;6.85;;;;;;;;;;5081201;28;20431;-81
2023/08/02 09:23:29;;;;;;;13.32;6.72;;;;;;;;;;5075808;28;20116;-81
2023/08/02 09:26:09;;;;;;;13.85;6.35;;;;;;;;;;5094599;28;20044;-80
2023/08/02 09:28:36;;;;;;;10.85;6.22;;;;;;;;;;5093532;28;20036;-87
2023/08/02 09:31:15;;;;;;;10.77;5.90;;;;;;;;;;5075980;28;20079;-78
2023/08/02 09:33:49;;;;;;;13.63;6.45;;;;;;;;;;5059962;28;20094;-78
2023/08/02 09:36:21;;;;;;;12.20;6.65;;;;;;;;;;5094583;28;20044;-76
2023/08/02 09:39:06;;;;;;;14.52;6.28;;;;;;;;;;5091941;28;20044;-79
2023/08/02 09:41:33;;;;;;;12.60;6.47;;;;;;;;;;5056895;28;20060;-80
2023/08/02 09:43:59;;;;;;;13.00;6.40;;;;;;;;;;5086759;28;20050;-76
2023/08/02 09:46:29;;;;;;;14.63;6.68;;;;;;;;;;5092614;28;20044;-79
2023/08/02 09:48:59;;;;;;;15.35;6.88;;;;;;;;;;5076998;28;20058;-82
2023/08/02 09:51:38;;;;;;;15.85;7.30;;;;;;;;;;5095603;28;20079;-80
2023/08/02 09:54:05;;;;;;;15.07;7.60;;;;;;;;;;5093153;28;20093;-78
2023/08/02 09:56:31;;;;;;;12.43;7.18;;;;;;;;;;5078875;28;20134;-78
2023/08/02 09:58:58;;;;;;;13.07;6.93;;;;;;;;;;5100505;28;20047;-77
2023/08/02 10:01:25;;;;;;;13.45;7.55;;;;;;;;;;5103319;28;20126;-75
2023/08/02 10:03:57;;;;;;;13.38;7.97;;;;;;;;;;5091469;28;20484;-82
2023/08/02 10:06:30;;;;;;;17.23;8.82;;;;;;;;;;5084851;28;20040;-80
2023/08/02 10:09:04;;;;;;;21.70;9.43;;;;;;;;;;5095433;28;20051;-77
2023/08/02 10:11:32;;;;;;;15.45;9.65;;;;;;;;;;5075959;28;20039;-77
2023/08/02 10:13:58;;;;;;;15.52;9.00;;;;;;;;;;5073771;28;20519;-76
2023/08/02 10:16:25;;;;;;;18.95;9.82;;;;;;;;;;5077784;28;20072;-76
2023/08/02 10:18:52;;;;;;;13.73;9.27;;;;;;;;;;5098355;28;20055;-76
2023/08/02 10:21:19;;;;;;;18.70;10.32;;;;;;;;;;5093065;28;20410;-78
2023/08/02 10:23:46;;;;;;;15.75;9.27;;;;;;;;;;5090481;28;20040;-77
2023/08/02 10:26:12;;;;;;;12.27;8.75;;;;;;;;;;5090696;28;20553;-78
2023/08/02 10:28:40;;;;;;;16.80;10.35;;;;;;;;;;5073004;28;20097;-77
2023/08/02 10:31:08;;;;;;;16.65;10.52;;;;;;;;;;5055905;28;20048;-77
2023/08/02 10:33:34;;;;;;;16.88;10.27;;;;;;;;;;5072812;28;20050;-77
2023/08/02 10:36:02;;;;;;;18.60;10.75;;;;;;;;;;5090284;28;20040;-77
2023/08/02 10:38:46;;;;;;;17.33;11.68;;;;;;;;;;5090115;28;20040;-76
2023/08/02 10:41:27;;;;;;;25.92;13.23;;;;;;;;;;5090435;28;20093;-76
2023/08/02 10:43:53;;;;;;;18.10;11.55;;;;;;;;;;5090199;28;20388;-78
2023/08/02 10:46:22;;;;;;;24.58;12.90;;;;;;;;;;5071638;28;20117;-75
2023/08/02 10:48:48;;;;;;;16.70;10.80;;;;;;;;;;5090449;28;20130;-75
2023/08/02 10:51:34;;;;;;;14.25;9.93;;;;;;;;;;5090034;28;20047;-77
2023/08/02 10:54:13;;;;;;;17.08;9.98;;;;;;;;;;5090437;28;20064;-77
2023/08/02 10:56:55;;;;;;;13.57;8.88;;;;;;;;;;5089834;28;20377;-76
2023/08/02 10:59:24;;;;;;;14.10;9.68;;;;;;;;;;5090216;28;20058;-76
2023/08/02 11:01:57;;;;;;;13.13;8.20;;;;;;;;;;5072094;28;20044;-75
2023/08/02 11:04:24;;;;;;;11.05;7.00;;;;;;;;;;5081263;28;20437;-77
2023/08/02 11:06:50;;;;;;;9.63;6.43;;;;;;;;;;5073208;28;20086;-78
2023/08/02 11:09:16;;;;;;;9.10;5.63;;;;;;;;;;5074227;28;20071;-74
2023/08/02 11:11:42;;;;;;;9.93;6.75;;;;;;;;;;5092685;28;20127;-75
2023/08/02 11:14:10;;;;;;;8.73;4.90;;;;;;;;;;5088635;28;20048;-74
2023/08/02 11:16:40;;;;;;;7.22;5.15;;;;;;;;;;5065803;28;20642;-74
2023/08/02 11:19:10;;;;;;;8.77;5.72;;;;;;;;;;5071494;28;20052;-75
2023/08/02 11:21:36;;;;;;;6.75;4.53;;;;;;;;;;5090550;28;20044;-75
2023/08/02 11:24:03;;;;;;;6.13;4.32;;;;;;;;;;5087374;28;20043;-75
2023/08/02 11:26:30;;;;;;;7.47;4.80;;;;;;;;;;5075192;28;20054;-75
2023/08/02 11:28:57;;;;;;;6.47;4.60;;;;;;;;;;5089167;28;20123;-75
2023/08/02 11:31:28;;;;;;;6.05;4.57;;;;;;;;;;5087307;28;20044;-75
2023/08/02 11:33:54;;;;;;;6.07;4.30;;;;;;;;;;5088887;28;20066;-75
2023/08/02 11:36:21;;;;;;;6.75;3.97;;;;;;;;;;5091570;28;20066;-75
2023/08/02 11:38:47;;;;;;;6.50;4.00;;;;;;;;;;5092683;28;20044;-75
2023/08/02 11:41:17;;;;;;;6.95;4.10;;;;;;;;;;5073950;28;20039;-76
2023/08/02 11:43:44;;;;;;;6.30;4.28;;;;;;;;;;5072380;28;20071;-75
2023/08/02 11:46:26;;;;;;;6.22;4.50;;;;;;;;;;5091502;28;20128;-75
2023/08/02 11:49:06;;;;;;;5.45;3.90;;;;;;;;;;5091843;28;20083;-75
2023/08/02 11:51:32;;;;;;;4.88;3.55;;;;;;;;;;5087704;28;20093;-74
2023/08/02 11:53:59;;;;;;;6.05;3.83;;;;;;;;;;5081209;28;20048;-75
2023/08/02 11:56:26;;;;;;;6.22;3.80;;;;;;;;;;5081990;28;20416;-75
2023/08/02 11:58:53;;;;;;;7.00;3.90;;;;;;;;;;5092508;28;20494;-75
2023/08/02 12:01:20;;;;;;;5.85;3.65;;;;;;;;;;5091636;28;20067;-75
2023/08/02 12:03:53;;;;;;;4.10;3.10;;;;;;;;;;5091475;28;20481;-74
2023/08/02 12:06:19;;;;;;;4.00;3.28;;;;;;;;;;5091458;28;20127;-74
2023/08/02 12:08:56;;;;;;;4.63;2.95;;;;;;;;;;5092087;28;20051;-73
2023/08/02 12:11:22;;;;;;;3.70;2.80;;;;;;;;;;5096598;28;20416;-77
2023/08/02 12:13:48;;;;;;;3.90;3.50;;;;;;;;;;5094765;28;20131;-76
2023/08/02 12:16:16;;;;;;;7.25;3.10;;;;;;;;;;5092402;28;20044;-75
2023/08/02 12:18:54;;;;;;;4.38;2.28;;;;;;;;;;5094678;28;20052;-74
2023/08/02 12:21:21;;;;;;;3.38;2.13;;;;;;;;;;5095443;28;20051;-74
2023/08/02 12:23:47;;;;;;;4.90;2.10;;;;;;;;;;5096107;28;20044;-74
2023/08/02 12:26:27;;;;;;;5.80;1.92;;;;;;;;;;5092312;28;20056;-74
2023/08/02 12:28:53;;;;;;;2.10;1.70;;;;;;;;;;5091741;28;20055;-74
2023/08/02 12:31:19;;;;;;;2.60;2.00;;;;;;;;;;5077844;28;20051;-75
2023/08/02 12:33:46;;;;;;;3.58;2.10;;;;;;;;;;5094626;28;20406;-74
2023/08/02 12:36:23;;;;;;;4.43;2.33;;;;;;;;;;5071983;28;20033;-75
2023/08/02 12:38:49;;;;;;;4.35;2.50;;;;;;;;;;5075644;28;20434;-75
2023/08/02 12:41:15;;;;;;;4.70;2.38;;;;;;;;;;5088198;28;20047;-74
2023/08/02 12:43:41;;;;;;;4.43;2.55;;;;;;;;;;5094814;28;20094;-74
2023/08/02 12:46:08;;;;;;;3.53;2.25;;;;;;;;;;5080195;28;20053;-75
2023/08/02 12:48:34;;;;;;;4.65;2.97;;;;;;;;;;5074042;28;20131;-75
2023/08/02 12:51:00;;;;;;;7.53;2.92;;;;;;;;;;5081848;28;20046;-74
2023/08/02 12:53:26;;;;;;;3.50;2.55;;;;;;;;;;5094283;28;20044;-76
2023/08/02 12:55:52;;;;;;;3.38;2.40;;;;;;;;;;5092110;28;20051;-75
2023/08/02 12:58:18;;;;;;;3.20;2.30;;;;;;;;;;5094714;28;20429;-75
2023/08/02 13:00:45;;;;;;;2.75;2.20;;;;;;;;;;5095132;28;20473;-75
2023/08/02 13:03:11;;;;;;;2.70;2.05;;;;;;;;;;5095520;28;20051;-75
2023/08/02 13:05:38;;;;;;;5.07;2.38;;;;;;;;;;5094427;28;20058;-75
2023/08/02 13:08:04;;;;;;;7.38;2.60;;;;;;;;;;5075934;28;20079;-75
2023/08/02 13:10:30;;;;;;;3.00;2.22;;;;;;;;;;5092203;28;20047;-75
2023/08/02 13:12:56;;;;;;;3.03;2.58;;;;;;;;;;5095561;28;20127;-75
2023/08/02 13:15:22;;;;;;;4.00;2.30;;;;;;;;;;5076577;28;20036;-74
2023/08/02 13:17:48;;;;;;;3.17;2.30;;;;;;;;;;5095583;28;20054;-76
2023/08/02 13:20:15;;;;;;;3.75;2.35;;;;;;;;;;5094813;28;20079;-76
2023/08/02 13:22:41;;;;;;;5.20;2.45;;;;;;;;;;5093451;28;20105;-73
2023/08/02 13:25:08;;;;;;;4.20;2.35;;;;;;;;;;5095798;28;20097;-72
2023/08/02 13:27:34;;;;;;;3.25;2.28;;;;;;;;;;5101740;28;20044;-72
2023/08/02 13:30:01;;;;;;;6.07;2.60;;;;;;;;;;5084829;28;20044;-73
2023/08/02 13:32:28;;;;;;;4.47;2.20;;;;;;;;;;5095762;28;20051;-73
2023/08/02 13:34:54;;;;;;;4.57;2.30;;;;;;;;;;5075982;28;20048;-73
2023/08/02 13:37:21;;;;;;;4.45;1.95;;;;;;;;;;5094957;28;20410;-73
2023/08/02 13:39:47;;;;;;;3.22;2.20;;;;;;;;;;5094264;28;20153;-72
2023/08/02 13:42:13;;;;;;;4.20;2.10;;;;;;;;;;5077305;28;20053;-72
2023/08/02 13:44:39;;;;;;;3.55;2.22;;;;;;;;;;5093891;28;20048;-71
2023/08/02 13:47:06;;;;;;;4.65;2.20;;;;;;;;;;5093652;28;20063;-72
2023/08/02 13:49:32;;;;;;;3.35;1.98;;;;;;;;;;5094292;28;20442;-72
2023/08/02 13:51:58;;;;;;;3.85;2.25;;;;;;;;;;5091007;28;20110;-73
2023/08/02 13:54:24;;;;;;;4.30;2.20;;;;;;;;;;5074640;28;20100;-72
2023/08/02 13:56:50;;;;;;;5.93;1.80;;;;;;;;;;5077734;28;20075;-73
2023/08/02 13:59:17;;;;;;;3.60;2.10;;;;;;;;;;5091961;28;20058;-71
2023/08/02 14:01:43;;;;;;;3.70;2.20;;;;;;;;;;5055636;28;20051;-74
2023/08/02 14:04:09;;;;;;;3.25;2.10;;;;;;;;;;5090216;28;20505;-74
2023/08/02 14:06:35;;;;;;;3.30;2.20;;;;;;;;;;5092558;28;20569;-74
2023/08/02 14:09:03;;;;;;;6.85;2.35;;;;;;;;;;5090439;28;20090;-73
2023/08/02 14:11:29;;;;;;;4.07;2.20;;;;;;;;;;5092544;28;20122;-73
2023/08/02 14:13:55;;;;;;;3.72;2.20;;;;;;;;;;5093221;28;20040;-73
2023/08/02 14:16:21;;;;;;;2.63;2.00;;;;;;;;;;5091329;28;20089;-73
2023/08/02 14:18:47;;;;;;;5.03;2.30;;;;;;;;;;5073168;28;20087;-73
2023/08/02 14:21:14;;;;;;;4.47;2.38;;;;;;;;;;5065259;28;20131;-74
2023/08/02 14:23:40;;;;;;;5.82;2.70;;;;;;;;;;5092156;28;20048;-73
2023/08/02 14:26:06;;;;;;;4.47;2.40;;;;;;;;;;5090335;28;20127;-73
2023/08/02 14:28:32;;;;;;;4.82;2.00;;;;;;;;;;5076075;28;20044;-74
2023/08/02 14:31:00;;;;;;;2.83;1.90;;;;;;;;;;5093405;28;20054;-74
2023/08/02 14:33:26;;;;;;;4.38;2.00;;;;;;;;;;5092990;28;20079;-74